Time;durP1;ratioP1;P1;durP2;ratioP2;P2;SDS_P1;SDS_P2;PMS_P1;PMS_P2;Temp;Humidity;BMP_temperature;BMP_pressure;BME280_temperature;BME280_humidity;BME280_pressure;Samples;Min_cycle;Max_cycle;Signal;HPM_P1;HPM_P2
2022/01/05 00:01:58;;;;;;;1.73;1.20;;;10.20;99.90;;;;;;5001414;28;20034;-49
2022/01/05 00:04:23;;;;;;;1.70;1.10;;;10.20;99.90;;;;;;5000814;28;20054;-48
2022/01/05 00:06:49;;;;;;;0.77;0.77;;;10.20;99.90;;;;;;5003030;28;20057;-49
2022/01/05 00:09:15;;;;;;;3.25;1.02;;;10.20;99.90;;;;;;5001951;28;20022;-49
2022/01/05 00:11:41;;;;;;;2.33;0.80;;;10.20;99.90;;;;;;5000521;28;20472;-49
2022/01/05 00:14:06;;;;;;;0.95;0.90;;;10.20;99.90;;;;;;5003739;28;20466;-48
2022/01/05 00:16:32;;;;;;;0.90;0.90;;;10.20;99.90;;;;;;4998712;28;20342;-49
2022/01/05 00:18:58;;;;;;;0.80;0.80;;;10.20;99.90;;;;;;5003594;28;20034;-49
2022/01/05 00:21:24;;;;;;;1.02;0.80;;;10.20;99.90;;;;;;5001322;28;20433;-49
2022/01/05 00:23:49;;;;;;;1.95;1.00;;;10.20;99.90;;;;;;5001213;28;20097;-49
2022/01/05 00:26:15;;;;;;;1.00;0.93;;;10.20;99.90;;;;;;5003316;28;20026;-49
2022/01/05 00:28:41;;;;;;;0.75;0.75;;;10.20;99.90;;;;;;5002741;28;20038;-49
2022/01/05 00:31:06;;;;;;;0.80;0.65;;;10.20;99.90;;;;;;4999999;28;20044;-49
2022/01/05 00:33:32;;;;;;;0.80;0.80;;;10.20;99.90;;;;;;5002702;28;20102;-49
2022/01/05 00:35:57;;;;;;;0.77;0.77;;;10.20;99.90;;;;;;5002312;28;20100;-49
2022/01/05 00:38:23;;;;;;;0.80;0.80;;;10.20;99.90;;;;;;5001811;28;20025;-49
2022/01/05 00:40:49;;;;;;;1.38;1.08;;;10.20;99.90;;;;;;5000866;28;20031;-49
2022/01/05 00:43:14;;;;;;;1.33;1.00;;;10.10;99.90;;;;;;5000581;28;20026;-49
2022/01/05 00:45:40;;;;;;;1.23;0.93;;;10.20;99.90;;;;;;5003244;28;20113;-49
2022/01/05 00:48:05;;;;;;;5.28;0.80;;;10.20;99.90;;;;;;5002216;28;20041;-49
2022/01/05 00:50:31;;;;;;;0.80;0.80;;;10.20;99.90;;;;;;4999924;28;20022;-49
2022/01/05 00:53:00;;;;;;;0.70;0.70;;;10.20;99.90;;;;;;5002037;28;20112;-49
2022/01/05 00:55:29;;;;;;;0.80;0.70;;;10.10;99.90;;;;;;5002204;28;20040;-49
2022/01/05 00:57:55;;;;;;;0.60;0.60;;;10.10;99.90;;;;;;5003240;28;20026;-49
2022/01/05 01:00:21;;;;;;;0.70;0.65;;;10.20;99.90;;;;;;5002940;28;20601;-49
2022/01/05 01:02:47;;;;;;;0.50;0.50;;;10.10;99.90;;;;;;4998537;28;20033;-49
2022/01/05 01:05:14;;;;;;;0.52;0.52;;;10.10;99.90;;;;;;5003542;28;20087;-49
2022/01/05 01:07:40;;;;;;;0.50;0.50;;;10.10;99.90;;;;;;5001107;28;20045;-49
2022/01/05 01:10:07;;;;;;;0.52;0.52;;;10.20;99.90;;;;;;5003040;28;20021;-49
2022/01/05 01:12:34;;;;;;;0.63;0.60;;;10.20;99.90;;;;;;4999011;28;20034;-49
2022/01/05 01:15:02;;;;;;;0.50;0.50;;;10.10;99.90;;;;;;5001483;28;20029;-49
2022/01/05 01:17:27;;;;;;;0.40;0.40;;;10.10;99.90;;;;;;4999476;28;20361;-49
2022/01/05 01:19:53;;;;;;;0.50;0.50;;;10.10;99.90;;;;;;5003902;28;20037;-49
2022/01/05 01:22:19;;;;;;;0.50;0.50;;;10.10;99.90;;;;;;4999231;28;20122;-49
2022/01/05 01:24:45;;;;;;;0.45;0.45;;;10.10;99.90;;;;;;5002633;28;20109;-49
2022/01/05 01:27:10;;;;;;;0.40;0.40;;;10.10;99.90;;;;;;4999922;28;20118;-49
2022/01/05 01:29:36;;;;;;;0.40;0.40;;;10.10;99.90;;;;;;5003794;28;20025;-49
2022/01/05 01:32:04;;;;;;;1.05;0.68;;;10.10;99.90;;;;;;5001171;28;20100;-49
2022/01/05 01:34:30;;;;;;;0.73;0.50;;;10.10;99.90;;;;;;5000225;28;20034;-49
2022/01/05 01:36:56;;;;;;;0.50;0.50;;;10.10;99.90;;;;;;5003117;28;20038;-49
2022/01/05 01:39:21;;;;;;;0.40;0.40;;;10.10;99.90;;;;;;4999820;28;20027;-49
2022/01/05 01:41:47;;;;;;;0.40;0.40;;;10.10;99.90;;;;;;5001568;28;20114;-49
2022/01/05 01:44:12;;;;;;;3.17;0.60;;;10.10;99.90;;;;;;5003235;28;20064;-49
2022/01/05 01:46:38;;;;;;;0.45;0.45;;;10.10;99.90;;;;;;4998359;28;20033;-49
2022/01/05 01:49:04;;;;;;;0.50;0.50;;;10.10;99.90;;;;;;5003771;28;20037;-49
2022/01/05 01:51:29;;;;;;;0.30;0.30;;;10.10;99.90;;;;;;5001799;28;20438;-49
2022/01/05 01:53:55;;;;;;;0.68;0.68;;;10.10;99.90;;;;;;5000792;28;20037;-49
2022/01/05 01:56:24;;;;;;;0.30;0.30;;;10.10;99.90;;;;;;5000423;28;20023;-49
2022/01/05 01:58:50;;;;;;;0.30;0.30;;;10.10;99.90;;;;;;5002188;28;20037;-49
2022/01/05 02:01:16;;;;;;;0.40;0.40;;;10.10;99.90;;;;;;5000870;28;20369;-49
2022/01/05 02:03:42;;;;;;;0.40;0.40;;;10.10;99.90;;;;;;5003605;28;20031;-49
2022/01/05 02:06:08;;;;;;;0.40;0.40;;;10.10;99.90;;;;;;4999639;28;20037;-49
2022/01/05 02:08:34;;;;;;;0.30;0.30;;;10.10;99.90;;;;;;5000695;28;20038;-49
2022/01/05 02:11:00;;;;;;;0.63;0.63;;;10.10;99.90;;;;;;5001373;28;20033;-49
2022/01/05 02:13:26;;;;;;;0.30;0.30;;;10.10;99.90;;;;;;4998630;28;20026;-49
2022/01/05 02:15:52;;;;;;;0.30;0.30;;;10.10;99.90;;;;;;5003630;28;20019;-49
2022/01/05 02:18:58;;;;;;;0.30;0.30;;;10.10;99.90;;;;;;5003590;28;20125;-49
2022/01/05 02:21:07;;;;;;;0.32;0.32;;;10.10;99.90;;;;;;5001627;28;20022;-49
2022/01/05 02:23:34;;;;;;;0.75;0.75;;;10.10;99.90;;;;;;4999648;28;20056;-49
2022/01/05 02:26:04;;;;;;;0.30;0.30;;;10.10;99.90;;;;;;5000277;28;20454;-49
2022/01/05 02:28:30;;;;;;;0.30;0.30;;;10.10;99.90;;;;;;5000971;28;20048;-49
2022/01/05 02:30:57;;;;;;;0.30;0.30;;;10.10;99.90;;;;;;5001545;28;20105;-49
2022/01/05 02:33:23;;;;;;;0.30;0.30;;;10.10;99.90;;;;;;5000768;28;20113;-49
2022/01/05 02:35:49;;;;;;;0.20;0.20;;;10.00;99.90;;;;;;5007157;28;20034;-49
2022/01/05 02:38:20;;;;;;;0.40;0.40;;;10.10;99.90;;;;;;5002754;28;20057;-49
2022/01/05 02:40:46;;;;;;;0.30;0.30;;;10.10;99.90;;;;;;5003728;28;20023;-49
2022/01/05 02:43:12;;;;;;;0.38;0.38;;;10.10;99.90;;;;;;5004029;28;20092;-49
2022/01/05 02:45:37;;;;;;;0.88;0.43;;;10.00;99.90;;;;;;5004180;28;20029;-49
2022/01/05 02:48:04;;;;;;;1.75;0.70;;;10.10;99.90;;;;;;5003272;28;20129;-49
2022/01/05 02:50:30;;;;;;;0.30;0.30;;;10.00;99.90;;;;;;5003136;28;20038;-49
2022/01/05 02:52:55;;;;;;;0.30;0.30;;;10.00;99.90;;;;;;5004347;28;20034;-49
2022/01/05 02:55:21;;;;;;;0.40;0.40;;;10.00;99.90;;;;;;5003590;28;20031;-49
2022/01/05 02:57:47;;;;;;;0.20;0.20;;;10.00;99.90;;;;;;5007081;28;20037;-49
2022/01/05 03:00:14;;;;;;;0.30;0.30;;;10.00;99.90;;;;;;5006242;28;20105;-49
2022/01/05 03:02:41;;;;;;;0.30;0.30;;;10.00;99.90;;;;;;5002780;28;20124;-49
2022/01/05 03:05:07;;;;;;;0.20;0.20;;;10.00;99.90;;;;;;5005153;28;20077;-49
2022/01/05 03:07:38;;;;;;;0.35;0.35;;;10.00;99.90;;;;;;5003418;28;20038;-49
2022/01/05 03:10:04;;;;;;;0.45;0.45;;;10.00;99.90;;;;;;5004459;28;20452;-49
2022/01/05 03:12:31;;;;;;;0.30;0.30;;;10.00;99.90;;;;;;5003989;28;20456;-49
2022/01/05 03:14:57;;;;;;;1.95;0.57;;;10.00;99.90;;;;;;5004022;28;20053;-49
2022/01/05 03:17:22;;;;;;;0.20;0.20;;;10.00;99.90;;;;;;5000814;28;20030;-49
2022/01/05 03:19:48;;;;;;;0.30;0.30;;;10.00;99.90;;;;;;5002940;28;20030;-49
2022/01/05 03:22:14;;;;;;;0.30;0.30;;;10.00;99.90;;;;;;5002267;28;20026;-49
2022/01/05 03:24:39;;;;;;;0.28;0.28;;;10.00;99.90;;;;;;5004188;28;20022;-49
2022/01/05 03:27:05;;;;;;;0.57;0.50;;;10.00;99.90;;;;;;5005708;28;20030;-49
2022/01/05 03:29:31;;;;;;;0.20;0.20;;;10.00;99.90;;;;;;4996803;28;20032;-49
2022/01/05 03:31:57;;;;;;;0.30;0.30;;;10.00;99.90;;;;;;5000871;28;20037;-49
2022/01/05 03:34:22;;;;;;;0.30;0.30;;;10.00;99.90;;;;;;5003275;28;20036;-49
2022/01/05 03:36:48;;;;;;;0.28;0.28;;;10.00;99.90;;;;;;5001655;28;20122;-49
2022/01/05 03:39:14;;;;;;;0.20;0.20;;;10.00;99.90;;;;;;5005652;28;20018;-49
2022/01/05 03:41:40;;;;;;;0.50;0.32;;;10.00;99.90;;;;;;5002621;28;20034;-49
2022/01/05 03:44:06;;;;;;;0.22;0.22;;;10.00;99.90;;;;;;5004326;28;20468;-49
2022/01/05 03:46:32;;;;;;;0.30;0.30;;;10.00;99.90;;;;;;5004538;28;20046;-49
2022/01/05 03:48:57;;;;;;;0.30;0.30;;;10.00;99.90;;;;;;5005650;28;20097;-49
2022/01/05 03:51:23;;;;;;;0.30;0.30;;;10.00;99.90;;;;;;5000348;28;20045;-49
2022/01/05 03:53:48;;;;;;;0.20;0.20;;;10.00;99.90;;;;;;5002005;28;20042;-49
2022/01/05 03:56:14;;;;;;;0.30;0.30;;;10.00;99.90;;;;;;5002424;28;20352;-49
2022/01/05 03:58:40;;;;;;;4.03;0.35;;;10.00;99.90;;;;;;5003937;28;20076;-49
2022/01/05 04:01:05;;;;;;;0.30;0.30;;;10.00;99.90;;;;;;5005610;28;20053;-49
2022/01/05 04:03:31;;;;;;;0.38;0.38;;;10.00;99.90;;;;;;5000483;28;20353;-49
2022/01/05 04:05:56;;;;;;;0.22;0.22;;;10.00;99.90;;;;;;5003237;28;20392;-49
2022/01/05 04:08:22;;;;;;;0.30;0.30;;;10.00;99.90;;;;;;5002151;28;20042;-49
2022/01/05 04:10:48;;;;;;;0.30;0.30;;;10.00;99.90;;;;;;5007411;28;20034;-49
2022/01/05 04:13:15;;;;;;;0.40;0.40;;;10.00;99.90;;;;;;4999981;28;20540;-49
2022/01/05 04:15:41;;;;;;;0.20;0.20;;;10.00;99.90;;;;;;5004171;28;20039;-49
2022/01/05 04:18:07;;;;;;;0.30;0.30;;;10.00;99.90;;;;;;4999071;28;20634;-48
2022/01/05 04:20:33;;;;;;;0.30;0.30;;;9.90;99.90;;;;;;5001377;28;20334;-49
2022/01/05 04:22:59;;;;;;;0.22;0.22;;;10.00;99.90;;;;;;5004715;28;20031;-49
2022/01/05 04:25:24;;;;;;;0.30;0.30;;;10.00;99.90;;;;;;5001201;28;20137;-49
2022/01/05 04:27:51;;;;;;;0.20;0.20;;;10.00;99.90;;;;;;5000701;28;20342;-49
2022/01/05 04:30:16;;;;;;;0.30;0.30;;;10.00;99.90;;;;;;5001863;28;20040;-49
2022/01/05 04:32:42;;;;;;;0.30;0.30;;;9.90;99.90;;;;;;5008222;28;20026;-49
2022/01/05 04:35:11;;;;;;;0.30;0.30;;;9.90;99.90;;;;;;5001306;28;20489;-49
2022/01/05 04:37:37;;;;;;;0.30;0.30;;;9.90;99.90;;;;;;5000942;28;20145;-49
2022/01/05 04:40:03;;;;;;;0.20;0.20;;;9.90;99.90;;;;;;5003346;28;20569;-49
2022/01/05 04:42:29;;;;;;;0.30;0.30;;;10.00;99.90;;;;;;4999864;28;20555;-49
2022/01/05 04:44:55;;;;;;;0.38;0.38;;;9.90;99.90;;;;;;5005301;28;20042;-48
2022/01/05 04:47:21;;;;;;;0.30;0.30;;;9.90;99.90;;;;;;5002647;28;20484;-49
2022/01/05 04:49:47;;;;;;;0.40;0.40;;;9.90;99.90;;;;;;5001489;28;20231;-49
2022/01/05 04:52:12;;;;;;;0.30;0.30;;;9.90;99.90;;;;;;5001480;28;20347;-49
2022/01/05 04:54:38;;;;;;;0.22;0.22;;;9.90;99.90;;;;;;5003238;28;20069;-49
2022/01/05 04:57:05;;;;;;;0.30;0.30;;;9.90;99.90;;;;;;5001671;28;20069;-49
2022/01/05 04:59:31;;;;;;;0.30;0.30;;;9.90;99.90;;;;;;5001643;28;20034;-49
2022/01/05 05:01:57;;;;;;;0.28;0.28;;;9.90;99.90;;;;;;5001806;28;20030;-49
2022/01/05 05:04:23;;;;;;;0.35;0.35;;;9.90;99.90;;;;;;5001964;28;20069;-49
2022/01/05 05:06:49;;;;;;;0.30;0.30;;;9.90;99.90;;;;;;4999450;28;20026;-49
2022/01/05 05:09:15;;;;;;;0.30;0.30;;;9.90;99.90;;;;;;5001967;28;20030;-49
2022/01/05 05:11:41;;;;;;;0.40;0.40;;;9.90;99.90;;;;;;5000494;28;20022;-49
2022/01/05 05:14:07;;;;;;;0.30;0.30;;;9.90;99.90;;;;;;5002639;28;20041;-49
2022/01/05 05:16:33;;;;;;;0.40;0.40;;;9.90;99.90;;;;;;5001466;28;20120;-49
2022/01/05 05:18:58;;;;;;;0.20;0.20;;;9.90;99.90;;;;;;5001197;28;20081;-49
2022/01/05 05:21:24;;;;;;;0.40;0.40;;;9.90;99.90;;;;;;5001172;28;20437;-49
2022/01/05 05:23:49;;;;;;;0.43;0.43;;;9.90;99.90;;;;;;5004624;28;20029;-49
2022/01/05 05:26:15;;;;;;;0.38;0.38;;;9.80;99.90;;;;;;5005735;28;20080;-49
2022/01/05 05:28:41;;;;;;;0.40;0.40;;;9.80;99.90;;;;;;5000154;28;20045;-49
2022/01/05 05:31:07;;;;;;;0.30;0.30;;;9.80;99.90;;;;;;5002930;28;20022;-49
2022/01/05 05:33:32;;;;;;;1.00;0.45;;;9.80;99.90;;;;;;4997723;28;20033;-49
2022/01/05 05:35:58;;;;;;;0.30;0.30;;;9.80;99.90;;;;;;5003735;28;20349;-49
2022/01/05 05:38:24;;;;;;;0.52;0.52;;;9.80;99.90;;;;;;5000610;28;20034;-49
2022/01/05 05:40:50;;;;;;;0.60;0.60;;;9.80;99.90;;;;;;4998943;28;20038;-49
2022/01/05 05:43:15;;;;;;;0.40;0.40;;;9.80;99.90;;;;;;5000863;28;20040;-49
2022/01/05 05:45:41;;;;;;;0.50;0.50;;;9.80;99.90;;;;;;5002951;28;20337;-49
2022/01/05 05:48:07;;;;;;;0.60;0.60;;;9.90;99.90;;;;;;4999905;28;20053;-49
2022/01/05 05:50:33;;;;;;;0.43;0.43;;;9.80;99.90;;;;;;5004904;28;20458;-49
2022/01/05 05:52:59;;;;;;;0.50;0.50;;;9.80;99.90;;;;;;5002512;28;20071;-49
2022/01/05 05:55:25;;;;;;;0.60;0.60;;;9.80;99.90;;;;;;4999852;28;20030;-49
2022/01/05 05:57:51;;;;;;;0.55;0.55;;;9.80;99.90;;;;;;5004401;28;20346;-49
2022/01/05 06:00:16;;;;;;;0.50;0.50;;;9.80;99.90;;;;;;5000113;28;20398;-49
2022/01/05 06:02:43;;;;;;;0.50;0.50;;;9.80;99.90;;;;;;5003457;28;20081;-49
2022/01/05 06:05:09;;;;;;;0.70;0.70;;;9.80;99.90;;;;;;5002833;28;20357;-49
2022/01/05 06:07:34;;;;;;;0.35;0.35;;;9.80;99.90;;;;;;5011727;28;20030;-49
2022/01/05 06:10:00;;;;;;;0.50;0.50;;;9.80;99.90;;;;;;5006622;28;20456;-49
2022/01/05 06:12:26;;;;;;;0.40;0.40;;;9.80;99.90;;;;;;5002286;28;20750;-49
2022/01/05 06:14:52;;;;;;;0.40;0.40;;;9.80;99.90;;;;;;5004631;28;20041;-49
2022/01/05 06:17:18;;;;;;;0.55;0.55;;;9.80;99.90;;;;;;5004080;28;20364;-49
2022/01/05 06:19:43;;;;;;;0.60;0.60;;;9.80;99.90;;;;;;5006815;28;20031;-49
2022/01/05 06:22:10;;;;;;;0.65;0.65;;;9.80;99.90;;;;;;5008584;28;20026;-49
2022/01/05 06:24:38;;;;;;;0.68;0.50;;;9.80;99.90;;;;;;5005848;28;20034;-49
2022/01/05 06:27:05;;;;;;;0.40;0.40;;;9.80;99.90;;;;;;5006040;28;20030;-48
2022/01/05 06:29:30;;;;;;;0.50;0.50;;;9.80;99.90;;;;;;5003778;28;20487;-49
2022/01/05 06:31:56;;;;;;;0.43;0.40;;;9.80;99.90;;;;;;5000922;28;20061;-49
2022/01/05 06:34:21;;;;;;;0.30;0.30;;;9.80;99.90;;;;;;5001648;28;20473;-49
2022/01/05 06:36:47;;;;;;;0.40;0.40;;;9.80;99.90;;;;;;5003179;28;20368;-48
2022/01/05 06:39:13;;;;;;;0.60;0.60;;;9.80;99.90;;;;;;5007232;28;20022;-49
2022/01/05 06:41:38;;;;;;;0.55;0.55;;;9.80;99.90;;;;;;5006189;28;20029;-49
2022/01/05 06:44:04;;;;;;;0.52;0.47;;;9.80;99.90;;;;;;5003020;28;20418;-49
2022/01/05 06:46:30;;;;;;;0.30;0.30;;;9.80;99.90;;;;;;5002627;28;20499;-49
2022/01/05 06:48:55;;;;;;;0.70;0.40;;;9.80;99.90;;;;;;5004288;28;20034;-49
2022/01/05 06:51:21;;;;;;;0.40;0.40;;;9.80;99.90;;;;;;5002226;28;20361;-49
2022/01/05 06:53:46;;;;;;;0.40;0.40;;;9.80;99.90;;;;;;5006323;28;20044;-49
2022/01/05 06:56:12;;;;;;;0.60;0.60;;;9.80;99.90;;;;;;5006172;28;20137;-49
2022/01/05 06:58:38;;;;;;;0.38;0.38;;;9.80;99.90;;;;;;5003333;28;20468;-49
2022/01/05 07:01:03;;;;;;;0.30;0.30;;;9.80;99.90;;;;;;5004834;28;20045;-49
2022/01/05 07:03:29;;;;;;;0.80;0.60;;;9.80;99.90;;;;;;5001157;28;20034;-48
2022/01/05 07:05:54;;;;;;;0.73;0.70;;;9.80;99.90;;;;;;5004402;28;20079;-49
2022/01/05 07:08:20;;;;;;;0.50;0.50;;;9.80;99.90;;;;;;5003587;28;20039;-49
2022/01/05 07:10:46;;;;;;;0.40;0.40;;;9.80;99.90;;;;;;5005200;28;20095;-49
2022/01/05 07:13:11;;;;;;;2.20;0.40;;;9.80;99.90;;;;;;5001049;28;20256;-49
2022/01/05 07:15:37;;;;;;;0.30;0.30;;;9.80;99.90;;;;;;5003778;28;20031;-48
2022/01/05 07:18:03;;;;;;;0.38;0.38;;;9.80;99.90;;;;;;5005460;28;20620;-49
2022/01/05 07:20:29;;;;;;;0.50;0.50;;;9.80;99.90;;;;;;5003314;28;20037;-49
2022/01/05 07:22:54;;;;;;;3.03;0.70;;;9.80;99.90;;;;;;5004395;28;20038;-49
2022/01/05 07:25:20;;;;;;;2.97;0.60;;;9.70;99.90;;;;;;5006892;28;20029;-49
2022/01/05 07:27:45;;;;;;;1.90;0.68;;;9.80;99.90;;;;;;5003081;28;20093;-49
2022/01/05 07:30:12;;;;;;;1.48;1.13;;;9.80;99.90;;;;;;5004007;28;20026;-49
2022/01/05 07:32:39;;;;;;;1.75;0.88;;;9.80;99.90;;;;;;5007563;28;20030;-49
2022/01/05 07:35:05;;;;;;;5.13;0.98;;;9.70;99.90;;;;;;5001838;28;20461;-49
2022/01/05 07:37:31;;;;;;;2.20;0.90;;;9.70;99.90;;;;;;5004383;28;20047;-49
2022/01/05 07:39:56;;;;;;;2.08;0.98;;;9.70;99.90;;;;;;5002322;28;20033;-49
2022/01/05 07:42:22;;;;;;;1.08;0.73;;;9.70;99.90;;;;;;5004111;28;20034;-49
2022/01/05 07:44:47;;;;;;;6.07;0.98;;;9.70;99.90;;;;;;5004098;28;20420;-49
2022/01/05 07:47:13;;;;;;;1.27;0.98;;;9.80;99.90;;;;;;5003493;28;20153;-49
2022/01/05 07:49:39;;;;;;;4.95;1.08;;;9.70;99.90;;;;;;5001775;28;20449;-49
2022/01/05 07:52:06;;;;;;;3.72;1.08;;;9.70;99.90;;;;;;5000173;28;20022;-49
2022/01/05 07:54:32;;;;;;;4.85;0.93;;;9.70;99.90;;;;;;5008409;28;20478;-49
2022/01/05 07:56:58;;;;;;;0.70;0.70;;;9.70;99.90;;;;;;5009748;28;20077;-49
2022/01/05 07:59:24;;;;;;;0.68;0.68;;;9.70;99.90;;;;;;5007145;28;20038;-49
2022/01/05 08:01:50;;;;;;;4.22;1.08;;;9.70;99.90;;;;;;5008460;28;20088;-49
2022/01/05 08:04:16;;;;;;;1.92;0.93;;;9.70;99.90;;;;;;5007053;28;20460;-49
2022/01/05 08:06:42;;;;;;;0.70;0.70;;;9.70;99.90;;;;;;5003872;28;20029;-49
2022/01/05 08:09:08;;;;;;;0.70;0.70;;;9.70;99.90;;;;;;5000286;28;20148;-49
2022/01/05 08:11:34;;;;;;;1.98;0.90;;;9.70;99.90;;;;;;5000533;28;20045;-49
2022/01/05 08:13:59;;;;;;;0.63;0.63;;;9.70;99.90;;;;;;5007770;28;20388;-49
2022/01/05 08:16:25;;;;;;;1.30;0.93;;;9.70;99.90;;;;;;4999675;28;20057;-49
2022/01/05 08:18:51;;;;;;;0.90;0.70;;;9.70;99.90;;;;;;5002025;28;20411;-49
2022/01/05 08:21:17;;;;;;;0.90;0.88;;;9.70;99.90;;;;;;5002417;28;20038;-49
2022/01/05 08:23:43;;;;;;;1.02;0.65;;;9.70;99.90;;;;;;5003935;28;20401;-49
2022/01/05 08:26:09;;;;;;;2.10;1.20;;;9.70;99.90;;;;;;5006333;28;20080;-49
2022/01/05 08:28:35;;;;;;;0.63;0.63;;;9.70;99.90;;;;;;5002849;28;20368;-49
2022/01/05 08:31:01;;;;;;;0.55;0.55;;;9.70;99.90;;;;;;5000966;28;20034;-49
2022/01/05 08:33:27;;;;;;;0.60;0.60;;;9.70;99.90;;;;;;5006902;28;20475;-49
2022/01/05 08:35:53;;;;;;;0.60;0.60;;;9.70;99.90;;;;;;5003416;28;20038;-49
2022/01/05 08:38:20;;;;;;;1.65;0.93;;;9.70;99.90;;;;;;5005116;28;20022;-49
2022/01/05 08:40:46;;;;;;;1.55;0.75;;;9.70;99.90;;;;;;5001203;28;20535;-49
2022/01/05 08:43:13;;;;;;;1.08;0.90;;;9.70;99.90;;;;;;5004513;28;20444;-49
2022/01/05 08:45:40;;;;;;;0.85;0.73;;;9.70;99.90;;;;;;5006807;28;20050;-49
2022/01/05 08:48:06;;;;;;;1.83;1.00;;;9.70;99.90;;;;;;5008329;28;20464;-49
2022/01/05 08:50:34;;;;;;;2.10;1.00;;;9.70;99.90;;;;;;5008365;28;20057;-49
2022/01/05 08:53:00;;;;;;;1.90;0.90;;;9.70;99.90;;;;;;5005930;28;20091;-49
2022/01/05 08:55:39;;;;;;;2.33;0.80;;;9.70;99.90;;;;;;5010313;28;20219;-49
2022/01/05 08:58:05;;;;;;;0.40;0.40;;;9.60;99.90;;;;;;5006228;28;20404;-49
2022/01/05 09:00:32;;;;;;;0.40;0.40;;;9.60;99.90;;;;;;5005056;28;20027;-49
2022/01/05 09:02:58;;;;;;;5.03;1.00;;;9.60;99.90;;;;;;4999083;28;20041;-49
2022/01/05 09:05:24;;;;;;;3.97;0.73;;;9.60;99.90;;;;;;5000207;28;20041;-49
2022/01/05 09:07:50;;;;;;;2.45;1.10;;;9.60;99.90;;;;;;5004833;28;20038;-49
2022/01/05 09:10:16;;;;;;;1.95;0.68;;;9.60;99.90;;;;;;5002211;28;20068;-49
2022/01/05 09:12:41;;;;;;;1.10;0.82;;;9.60;99.90;;;;;;5003447;28;20061;-49
2022/01/05 09:15:07;;;;;;;0.60;0.60;;;9.60;99.90;;;;;;5002122;28;20061;-49
2022/01/05 09:17:33;;;;;;;2.05;0.70;;;9.70;99.90;;;;;;5004531;28;20041;-49
2022/01/05 09:19:59;;;;;;;3.45;0.90;;;9.60;99.90;;;;;;5001808;28;20333;-49
2022/01/05 09:22:25;;;;;;;1.25;0.98;;;9.60;99.90;;;;;;5002712;28;20490;-49
2022/01/05 09:24:51;;;;;;;1.17;1.08;;;9.60;99.90;;;;;;5007609;28;20034;-49
2022/01/05 09:27:18;;;;;;;1.83;0.90;;;9.60;99.90;;;;;;5001914;28;20026;-49
2022/01/05 09:29:44;;;;;;;1.40;1.02;;;9.60;99.90;;;;;;5004455;28;20037;-49
2022/01/05 09:32:10;;;;;;;0.57;0.52;;;9.70;99.90;;;;;;5002463;28;20038;-49
2022/01/05 09:34:37;;;;;;;0.68;0.68;;;9.70;99.90;;;;;;5004606;28;20030;-48
2022/01/05 09:37:09;;;;;;;1.70;0.60;;;9.60;99.90;;;;;;5002852;28;20467;-49
2022/01/05 09:42:20;;;;;;;2.40;1.17;;;9.60;99.90;;;;;;5002753;28;20049;-49
2022/01/05 09:44:48;;;;;;;5.35;1.00;;;9.60;99.90;;;;;;5004328;28;20448;-49
2022/01/05 09:47:37;;;;;;;0.65;0.60;;;9.70;99.90;;;;;;5004492;28;20065;-49
2022/01/05 09:50:07;;;;;;;4.82;1.10;;;9.70;99.90;;;;;;5006305;28;20018;-49
2022/01/05 09:52:40;;;;;;;0.65;0.65;;;9.70;99.90;;;;;;5002397;28;20052;-49
2022/01/05 09:55:07;;;;;;;5.32;1.25;;;9.70;99.90;;;;;;5004016;28;20035;-49
2022/01/05 09:57:33;;;;;;;0.88;0.68;;;9.70;99.90;;;;;;5004990;28;20026;-49
2022/01/05 10:00:00;;;;;;;2.75;0.90;;;9.70;99.90;;;;;;5007636;28;20038;-49
2022/01/05 10:02:26;;;;;;;1.90;0.90;;;9.60;99.90;;;;;;5001479;28;20530;-48
2022/01/05 10:04:52;;;;;;;1.95;0.60;;;9.60;99.90;;;;;;5002938;28;20034;-49
2022/01/05 10:07:18;;;;;;;2.85;0.85;;;9.60;99.90;;;;;;5002244;28;20064;-49
2022/01/05 10:09:45;;;;;;;1.45;0.80;;;9.60;99.90;;;;;;5002338;28;20356;-49
2022/01/05 10:12:13;;;;;;;2.45;1.25;;;9.60;99.90;;;;;;5001182;28;20026;-49
2022/01/05 10:14:44;;;;;;;3.65;1.15;;;9.60;99.90;;;;;;5003632;28;20068;-49
2022/01/05 10:17:12;;;;;;;4.05;0.90;;;9.60;99.90;;;;;;5001060;28;20022;-50
2022/01/05 10:19:39;;;;;;;0.77;0.77;;;9.70;99.90;;;;;;5002379;28;20033;-49
2022/01/05 10:22:32;;;;;;;0.80;0.80;;;9.60;99.90;;;;;;5003629;28;20404;-49
2022/01/05 10:24:58;;;;;;;0.75;0.75;;;9.60;99.90;;;;;;5000943;28;20338;-49
2022/01/05 10:27:25;;;;;;;3.17;1.10;;;9.60;99.90;;;;;;5001671;28;20072;-49
2022/01/05 10:29:54;;;;;;;4.35;0.95;;;9.70;99.90;;;;;;5000886;28;20045;-49
2022/01/05 10:32:20;;;;;;;3.70;1.00;;;9.60;99.90;;;;;;5006809;28;20091;-49
2022/01/05 10:35:05;;;;;;;1.38;0.75;;;9.60;99.90;;;;;;5001586;28;20095;-49
2022/01/05 10:37:32;;;;;;;1.35;0.75;;;9.60;99.90;;;;;;4999034;28;20034;-49
2022/01/05 10:40:14;;;;;;;3.00;1.20;;;9.60;99.90;;;;;;5002600;28;20033;-50
2022/01/05 10:42:41;;;;;;;1.33;1.00;;;9.60;99.90;;;;;;5002280;28;20427;-50
2022/01/05 10:45:10;;;;;;;2.75;0.85;;;9.60;99.90;;;;;;5002573;28;20026;-49
2022/01/05 10:47:36;;;;;;;0.40;0.40;;;9.60;99.90;;;;;;5002352;28;20038;-49
2022/01/05 10:50:05;;;;;;;5.93;1.15;;;9.60;99.90;;;;;;5002105;28;20375;-49
2022/01/05 10:52:34;;;;;;;3.93;1.33;;;9.60;99.90;;;;;;5003631;28;20034;-49
2022/01/05 10:55:15;;;;;;;4.18;0.85;;;9.60;99.90;;;;;;5009391;28;20097;-49
2022/01/05 10:58:02;;;;;;;3.20;1.10;;;9.60;99.90;;;;;;5007848;28;20053;-49
2022/01/05 11:00:37;;;;;;;3.83;0.85;;;9.70;99.90;;;;;;5006748;28;20116;-49
2022/01/05 11:03:30;;;;;;;3.10;1.02;;;9.60;99.90;;;;;;5006256;28;20025;-49
2022/01/05 11:06:02;;;;;;;4.18;1.20;;;9.70;99.90;;;;;;5005654;28;20409;-49
2022/01/05 11:08:29;;;;;;;7.07;1.80;;;9.60;99.90;;;;;;5002862;28;20034;-49
2022/01/05 11:10:54;;;;;;;3.05;1.40;;;9.60;99.90;;;;;;5002823;28;20030;-49
2022/01/05 11:13:20;;;;;;;1.05;1.00;;;9.70;99.90;;;;;;5003864;28;20084;-49
2022/01/05 11:15:45;;;;;;;4.00;1.00;;;9.60;99.90;;;;;;5005059;28;20080;-49
2022/01/05 11:18:19;;;;;;;2.22;1.15;;;9.60;99.90;;;;;;5002118;28;20037;-49
2022/01/05 11:20:52;;;;;;;5.93;1.10;;;9.60;99.90;;;;;;5005006;28;20112;-49
2022/01/05 11:23:22;;;;;;;1.80;1.10;;;9.60;99.90;;;;;;4999262;28;20037;-50
2022/01/05 11:25:48;;;;;;;;;;;9.60;99.90;;;;;;5003472;28;20105;-49
2022/01/05 11:28:18;;;;;;;5.65;1.10;;;9.60;99.90;;;;;;5002627;28;19914;-49
2022/01/05 11:30:45;;;;;;;6.53;1.38;;;9.60;99.90;;;;;;5003112;28;20133;-49
2022/01/05 11:33:12;;;;;;;1.42;1.25;;;9.70;99.90;;;;;;5002652;28;20446;-49
2022/01/05 11:35:38;;;;;;;1.90;1.23;;;9.70;99.90;;;;;;5005064;28;20064;-49
2022/01/05 11:38:05;;;;;;;0.88;0.70;;;9.60;99.90;;;;;;5002997;28;20029;-49
2022/01/05 11:40:32;;;;;;;4.43;1.10;;;9.60;99.90;;;;;;5004210;28;20478;-49
2022/01/05 11:43:02;;;;;;;7.25;1.17;;;9.60;99.90;;;;;;5002480;28;20457;-49
2022/01/05 11:45:30;;;;;;;1.48;1.38;;;9.60;99.90;;;;;;5004415;28;20034;-49
2022/01/05 11:48:13;;;;;;;5.40;1.83;;;9.60;99.90;;;;;;5004034;28;20370;-50
2022/01/05 11:50:50;;;;;;;2.30;0.80;;;9.60;99.90;;;;;;5006902;28;20551;-50
2022/01/05 11:53:31;;;;;;;4.03;1.38;;;9.60;99.90;;;;;;5007820;28;20032;-49
2022/01/05 11:55:59;;;;;;;5.00;1.13;;;9.60;99.90;;;;;;5007204;28;20018;-49
2022/01/05 11:58:27;;;;;;;1.58;0.50;;;9.60;99.90;;;;;;5003521;28;20030;-49
2022/01/05 12:01:12;;;;;;;1.60;0.82;;;9.60;99.90;;;;;;5006617;28;20129;-49
2022/01/05 12:04:10;;;;;;;3.05;1.27;;;9.70;99.90;;;;;;5005022;28;20345;-49
2022/01/05 12:06:44;;;;;;;1.73;1.25;;;9.70;99.90;;;;;;5004293;28;20037;-49
2022/01/05 12:09:25;;;;;;;3.40;1.20;;;9.70;99.90;;;;;;5003943;28;20401;-50
2022/01/05 12:11:50;;;;;;;7.13;2.20;;;9.70;99.90;;;;;;5004646;28;20475;-49
2022/01/05 12:14:22;;;;;;;5.80;1.48;;;9.70;99.90;;;;;;5000915;28;20030;-49
2022/01/05 12:17:02;;;;;;;5.90;1.50;;;9.70;99.90;;;;;;5001987;28;20025;-49
2022/01/05 12:19:48;;;;;;;3.85;1.45;;;9.70;99.90;;;;;;5002926;28;20075;-49
2022/01/05 12:22:28;;;;;;;1.42;1.15;;;9.70;99.90;;;;;;5001126;28;20044;-49
2022/01/05 12:25:12;;;;;;;9.00;1.10;;;9.70;99.90;;;;;;5004703;28;20032;-49
2022/01/05 12:27:57;;;;;;;4.43;1.33;;;9.70;99.90;;;;;;5002395;28;20042;-49
2022/01/05 12:30:26;;;;;;;1.20;1.10;;;9.70;99.90;;;;;;5001838;28;20456;-49
2022/01/05 12:33:08;;;;;;;8.63;1.10;;;9.70;99.90;;;;;;4997900;28;20037;-49
2022/01/05 12:36:03;;;;;;;1.10;1.00;;;9.70;99.90;;;;;;5006646;28;20088;-49
2022/01/05 12:38:39;;;;;;;2.83;1.60;;;9.70;99.90;;;;;;5005606;28;20050;-49
2022/01/05 12:41:23;;;;;;;7.13;0.95;;;9.70;99.90;;;;;;5004135;28;20411;-49
2022/01/05 12:43:49;;;;;;;2.72;1.15;;;9.70;99.90;;;;;;5006908;28;20021;-49
2022/01/05 12:46:31;;;;;;;2.88;0.77;;;9.70;99.90;;;;;;5003323;28;20026;-49
2022/01/05 12:48:59;;;;;;;6.97;1.52;;;9.70;99.90;;;;;;5002865;28;20169;-49
2022/01/05 12:51:38;;;;;;;3.53;1.13;;;9.70;99.90;;;;;;5002650;28;20025;-50
2022/01/05 12:54:07;;;;;;;4.70;1.02;;;9.70;99.90;;;;;;5004245;28;20516;-49
2022/01/05 12:56:37;;;;;;;7.07;1.10;;;9.70;99.90;;;;;;5004353;28;20034;-49
2022/01/05 12:59:14;;;;;;;3.50;1.33;;;9.70;99.90;;;;;;5006596;28;20022;-49